createdAt,value
2023-05-19T00:00:51.065Z,1023.25
2023-05-19T00:01:50.194Z,1023.26
2023-05-19T00:02:50.303Z,1023.26
2023-05-19T00:03:50.198Z,1023.25
2023-05-19T00:04:50.209Z,1023.25
2023-05-19T00:05:50.233Z,1023.27
2023-05-19T00:06:50.190Z,1023.28
2023-05-19T00:07:50.190Z,1023.26
2023-05-19T00:08:50.186Z,1023.26
2023-05-19T00:09:50.191Z,1023.27
2023-05-19T00:10:50.209Z,1023.27
2023-05-19T00:11:50.218Z,1023.31
2023-05-19T00:12:50.927Z,1023.32
2023-05-19T00:13:50.187Z,1023.31
2023-05-19T00:14:50.187Z,1023.31
2023-05-19T00:15:50.239Z,1023.32
2023-05-19T00:16:50.201Z,1023.27
2023-05-19T00:17:50.280Z,1023.31
2023-05-19T00:18:50.207Z,1023.30
2023-05-19T00:19:50.201Z,1023.34
2023-05-19T00:20:50.248Z,1023.33
2023-05-19T00:21:50.184Z,1023.30
2023-05-19T00:22:50.212Z,1023.30
2023-05-19T00:23:50.257Z,1023.33
2023-05-19T00:24:50.250Z,1023.36
2023-05-19T00:25:50.236Z,1023.36
2023-05-19T00:26:50.174Z,1023.32
2023-05-19T00:27:50.199Z,1023.34
2023-05-19T00:28:50.213Z,1023.33
2023-05-19T00:29:50.179Z,1023.32
2023-05-19T00:30:50.177Z,1023.31
2023-05-19T00:31:50.207Z,1023.29
2023-05-19T00:32:50.226Z,1023.29
2023-05-19T00:33:50.198Z,1023.25
2023-05-19T00:34:50.225Z,1023.22
2023-05-19T00:35:50.178Z,1023.25
2023-05-19T00:36:50.204Z,1023.23
2023-05-19T00:37:50.180Z,1023.18
2023-05-19T00:38:50.191Z,1023.21
2023-05-19T00:39:50.174Z,1023.22
2023-05-19T00:40:50.167Z,1023.21
2023-05-19T00:41:50.185Z,1023.21
2023-05-19T00:42:50.167Z,1023.22
2023-05-19T00:43:50.174Z,1023.19
2023-05-19T00:44:50.171Z,1023.21
2023-05-19T00:45:50.173Z,1023.20
2023-05-19T00:46:50.257Z,1023.21
2023-05-19T00:47:50.197Z,1023.18
2023-05-19T00:48:50.163Z,1023.20
2023-05-19T00:49:50.169Z,1023.21
2023-05-19T00:50:50.171Z,1023.21
2023-05-19T00:51:50.168Z,1023.22
2023-05-19T00:52:50.187Z,1023.23
2023-05-19T00:53:50.167Z,1023.22
2023-05-19T00:54:50.168Z,1023.21
2023-05-19T00:55:50.167Z,1023.17
2023-05-19T00:56:50.162Z,1023.20
2023-05-19T00:57:50.163Z,1023.23
2023-05-19T00:58:50.161Z,1023.18
2023-05-19T00:59:50.166Z,1023.25
2023-05-19T01:00:50.227Z,1023.21
2023-05-19T01:01:50.165Z,1023.24
2023-05-19T01:02:50.214Z,1023.21
2023-05-19T01:03:50.222Z,1023.21
2023-05-19T01:04:50.167Z,1023.23
2023-05-19T01:05:50.173Z,1023.19
2023-05-19T01:06:50.158Z,1023.20
2023-05-19T01:07:50.159Z,1023.23
2023-05-19T01:08:50.176Z,1023.25
2023-05-19T01:09:50.156Z,1023.26
2023-05-19T01:10:50.152Z,1023.26
2023-05-19T01:11:50.157Z,1023.23
2023-05-19T01:12:50.165Z,1023.19
2023-05-19T01:13:50.157Z,1023.23
2023-05-19T01:14:50.167Z,1023.23
2023-05-19T01:15:50.161Z,1023.23
2023-05-19T01:16:50.296Z,1023.20
2023-05-19T01:17:50.196Z,1023.20
2023-05-19T01:18:50.207Z,1023.19
2023-05-19T01:19:50.159Z,1023.15
2023-05-19T01:20:50.160Z,1023.16
2023-05-19T01:21:50.158Z,1023.15
2023-05-19T01:22:50.152Z,1023.10
2023-05-19T01:23:50.149Z,1023.13
2023-05-19T01:24:50.174Z,1023.15
2023-05-19T01:25:50.148Z,1023.06
2023-05-19T01:26:50.143Z,1023.11
2023-05-19T01:27:50.146Z,1023.09
2023-05-19T01:28:50.148Z,1023.12
2023-05-19T01:29:50.150Z,1023.08
2023-05-19T01:30:50.161Z,1023.11
2023-05-19T01:31:50.175Z,1023.11
2023-05-19T01:32:50.187Z,1023.15
2023-05-19T01:33:50.144Z,1023.18
2023-05-19T01:34:50.138Z,1023.20
2023-05-19T01:35:50.141Z,1023.17
2023-05-19T01:36:50.133Z,1023.24
2023-05-19T01:37:50.139Z,1023.21
2023-05-19T01:38:50.135Z,1023.25
2023-05-19T01:39:50.143Z,1023.26
2023-05-19T01:40:50.155Z,1023.22
2023-05-19T01:41:50.138Z,1023.26
2023-05-19T01:42:50.165Z,1023.23
2023-05-19T01:43:50.136Z,1023.25
2023-05-19T01:44:50.141Z,1023.27
2023-05-19T01:45:50.153Z,1023.25
2023-05-19T01:46:50.144Z,1023.25
2023-05-19T01:47:50.177Z,1023.27
2023-05-19T01:48:50.139Z,1023.21
2023-05-19T01:49:50.130Z,1023.23
2023-05-19T01:50:50.132Z,1023.23
2023-05-19T01:51:50.133Z,1023.22
2023-05-19T01:52:50.134Z,1023.24
2023-05-19T01:53:50.128Z,1023.26
2023-05-19T01:54:50.149Z,1023.28
2023-05-19T01:55:50.128Z,1023.22
2023-05-19T01:56:50.147Z,1023.24
2023-05-19T01:57:50.132Z,1023.23
2023-05-19T01:58:50.138Z,1023.21
2023-05-19T01:59:50.126Z,1023.17
2023-05-19T02:00:50.209Z,1023.22
2023-05-19T02:01:50.126Z,1023.19
2023-05-19T02:02:50.194Z,1023.20
2023-05-19T02:03:50.123Z,1023.20
2023-05-19T02:04:50.193Z,1023.20
2023-05-19T02:05:50.116Z,1023.20
2023-05-19T02:06:50.127Z,1023.19
2023-05-19T02:07:50.127Z,1023.17
2023-05-19T02:08:50.118Z,1023.28
2023-05-19T02:09:50.117Z,1023.23
2023-05-19T02:10:50.115Z,1023.23
2023-05-19T02:11:50.117Z,1023.22
2023-05-19T02:12:50.139Z,1023.24
2023-05-19T02:13:50.117Z,1023.20
2023-05-19T02:14:50.112Z,1023.23
2023-05-19T02:15:50.125Z,1023.23
2023-05-19T02:16:50.105Z,1023.24
2023-05-19T02:17:50.217Z,1023.22
2023-05-19T02:18:50.142Z,1023.23
2023-05-19T02:19:50.103Z,1023.19
2023-05-19T02:20:50.108Z,1023.20
2023-05-19T02:21:50.108Z,1023.23
2023-05-19T02:22:50.096Z,1023.15
2023-05-19T02:23:50.101Z,1023.21
2023-05-19T02:24:50.097Z,1023.18
2023-05-19T02:25:50.095Z,1023.18
2023-05-19T02:26:50.107Z,1023.16
2023-05-19T02:27:50.098Z,1023.21
2023-05-19T02:28:50.185Z,1023.19
2023-05-19T02:29:50.092Z,1023.21
2023-05-19T02:30:50.095Z,1023.20
2023-05-19T02:31:50.183Z,1023.22
2023-05-19T02:32:50.121Z,1023.20
2023-05-19T02:33:50.095Z,1023.21
2023-05-19T02:34:50.088Z,1023.20
2023-05-19T02:35:50.091Z,1023.23
2023-05-19T02:36:50.130Z,1023.19
2023-05-19T02:37:50.085Z,1023.24
2023-05-19T02:38:50.081Z,1023.23
2023-05-19T02:39:50.078Z,1023.20
2023-05-19T02:40:50.078Z,1023.21
2023-05-19T02:41:50.088Z,1023.21
2023-05-19T02:42:50.078Z,1023.18
2023-05-19T02:43:50.078Z,1023.20
2023-05-19T02:44:50.094Z,1023.18
2023-05-19T02:45:50.092Z,1023.18
2023-05-19T02:46:50.121Z,1023.18
2023-05-19T02:47:50.107Z,1023.17
2023-05-19T02:48:50.068Z,1023.14
2023-05-19T02:49:50.087Z,1023.14
2023-05-19T02:50:50.071Z,1023.16
2023-05-19T02:51:50.073Z,1023.14
2023-05-19T02:52:50.081Z,1023.12
2023-05-19T02:53:50.066Z,1023.13
2023-05-19T02:54:50.062Z,1023.10
2023-05-19T02:55:50.063Z,1023.09
2023-05-19T02:56:50.061Z,1023.08
2023-05-19T02:57:50.068Z,1023.09
2023-05-19T02:58:50.067Z,1023.08
2023-05-19T02:59:50.069Z,1023.07
2023-05-19T03:00:50.084Z,1023.05
2023-05-19T03:01:50.148Z,1023.04
2023-05-19T03:02:50.155Z,1023.05
2023-05-19T03:03:50.171Z,1023.08
2023-05-19T03:04:50.064Z,1023.05
2023-05-19T03:05:50.057Z,1023.08
2023-05-19T03:06:50.064Z,1023.07
2023-05-19T03:07:50.059Z,1023.12
2023-05-19T03:08:50.054Z,1023.08
2023-05-19T03:09:50.046Z,1023.09
2023-05-19T03:10:50.047Z,1023.06
2023-05-19T03:11:50.053Z,1023.03
2023-05-19T03:12:50.047Z,1023.02
2023-05-19T03:13:50.057Z,1023.05
2023-05-19T03:14:50.045Z,1023.00
2023-05-19T03:15:50.101Z,1023.05
2023-05-19T03:16:50.152Z,1022.98
2023-05-19T03:17:50.145Z,1023.04
2023-05-19T03:18:50.059Z,1022.98
2023-05-19T03:19:50.048Z,1022.99
2023-05-19T03:20:50.037Z,1022.96
2023-05-19T03:21:50.045Z,1022.94
2023-05-19T03:22:50.043Z,1022.96
2023-05-19T03:23:50.038Z,1022.96
2023-05-19T03:24:50.038Z,1023.03
2023-05-19T03:25:50.039Z,1023.02
2023-05-19T03:26:50.041Z,1023.08
2023-05-19T03:27:50.053Z,1023.13
2023-05-19T03:28:50.038Z,1023.13
2023-05-19T03:29:50.041Z,1023.08
2023-05-19T03:30:50.051Z,1023.11
2023-05-19T03:31:50.037Z,1023.12
2023-05-19T03:32:50.153Z,1023.10
2023-05-19T03:33:50.031Z,1023.10
2023-05-19T03:34:50.027Z,1023.15
2023-05-19T03:35:50.032Z,1023.09
2023-05-19T03:36:50.019Z,1023.11
2023-05-19T03:37:50.049Z,1023.10
2023-05-19T03:38:50.027Z,1023.07
2023-05-19T03:39:50.029Z,1023.09
2023-05-19T03:40:50.046Z,1023.13
2023-05-19T03:41:50.025Z,1023.10
2023-05-19T03:42:50.028Z,1023.12
2023-05-19T03:43:50.028Z,1023.11
2023-05-19T03:44:50.046Z,1023.12
2023-05-19T03:45:50.091Z,1023.05
2023-05-19T03:46:50.025Z,1023.10
2023-05-19T03:47:50.127Z,1023.10
2023-05-19T03:48:50.054Z,1023.08
2023-05-19T03:49:50.011Z,1023.06
2023-05-19T03:50:50.016Z,1023.05
2023-05-19T03:51:50.009Z,1023.08
2023-05-19T03:52:50.022Z,1023.04
2023-05-19T03:53:50.025Z,1023.02
2023-05-19T03:54:50.010Z,1023.06
2023-05-19T03:55:50.009Z,1023.04
2023-05-19T03:56:50.027Z,1023.04
2023-05-19T03:57:50.008Z,1023.08
2023-05-19T03:58:50.006Z,1023.07
2023-05-19T03:59:50.012Z,1023.09
2023-05-19T04:00:50.004Z,1023.08
2023-05-19T04:01:50.001Z,1023.10
2023-05-19T04:02:50.102Z,1023.09
2023-05-19T04:03:50.007Z,1023.06
2023-05-19T04:04:50.154Z,1023.06
2023-05-19T04:05:50.006Z,1023.09
2023-05-19T04:06:50.001Z,1023.10
2023-05-19T04:07:50.006Z,1023.09
2023-05-19T04:08:49.997Z,1023.11
2023-05-19T04:09:49.994Z,1023.07
2023-05-19T04:10:49.992Z,1023.12
2023-05-19T04:11:49.994Z,1023.11
2023-05-19T04:12:49.996Z,1023.12
2023-05-19T04:13:49.995Z,1023.13
2023-05-19T04:14:49.988Z,1023.13
2023-05-19T04:15:50.005Z,1023.16
2023-05-19T04:16:50.009Z,1023.14
2023-05-19T04:17:50.029Z,1023.17
2023-05-19T04:18:50.050Z,1023.13
2023-05-19T04:19:49.988Z,1023.17
2023-05-19T04:20:50.009Z,1023.16
2023-05-19T04:21:49.986Z,1023.17
2023-05-19T04:22:49.980Z,1023.16
2023-05-19T04:23:50.000Z,1023.13
2023-05-19T04:24:49.976Z,1023.16
2023-05-19T04:25:49.977Z,1023.14
2023-05-19T04:26:49.974Z,1023.14
2023-05-19T04:27:49.980Z,1023.19
2023-05-19T04:28:49.987Z,1023.19
2023-05-19T04:29:50.035Z,1023.17
2023-05-19T04:30:49.992Z,1023.15
2023-05-19T04:31:49.966Z,1023.16
2023-05-19T04:32:50.024Z,1023.20
2023-05-19T04:33:49.966Z,1023.20
2023-05-19T04:34:49.972Z,1023.17
2023-05-19T04:35:49.964Z,1023.20
2023-05-19T04:36:53.111Z,1023.21
2023-05-19T04:37:49.986Z,1023.19
2023-05-19T04:38:49.967Z,1023.20
2023-05-19T04:39:49.964Z,1023.24
2023-05-19T04:40:49.962Z,1023.20
2023-05-19T04:41:49.959Z,1023.21
2023-05-19T04:42:49.963Z,1023.27
2023-05-19T04:43:49.963Z,1023.22
2023-05-19T04:44:49.965Z,1023.24
2023-05-19T04:45:49.955Z,1023.25
2023-05-19T04:46:50.086Z,1023.23
2023-05-19T04:47:49.985Z,1023.23
2023-05-19T04:48:49.961Z,1023.23
2023-05-19T04:49:49.952Z,1023.24
2023-05-19T04:50:49.959Z,1023.22
2023-05-19T04:51:49.956Z,1023.24
2023-05-19T04:52:49.973Z,1023.26
2023-05-19T04:53:49.950Z,1023.26
2023-05-19T04:54:49.953Z,1023.22
2023-05-19T04:55:49.948Z,1023.24
2023-05-19T04:56:49.952Z,1023.23
2023-05-19T04:57:49.952Z,1023.31
2023-05-19T04:58:49.954Z,1023.33
2023-05-19T04:59:49.944Z,1023.29
2023-05-19T05:00:49.942Z,1023.26
2023-05-19T05:01:49.973Z,1023.27
2023-05-19T05:02:50.074Z,1023.28
2023-05-19T05:03:49.962Z,1023.28
2023-05-19T05:04:49.941Z,1023.29
2023-05-19T05:05:49.938Z,1023.28
2023-05-19T05:06:49.942Z,1023.32
2023-05-19T05:07:49.935Z,1023.29
2023-05-19T05:08:49.970Z,1023.32
2023-05-19T05:09:49.929Z,1023.27
2023-05-19T05:10:49.932Z,1023.29
2023-05-19T05:11:49.932Z,1023.32
2023-05-19T05:12:49.947Z,1023.29
2023-05-19T05:13:49.926Z,1023.29
2023-05-19T05:14:49.944Z,1023.32
2023-05-19T05:15:49.932Z,1023.34
2023-05-19T05:16:50.005Z,1023.33
2023-05-19T05:17:49.974Z,1023.35
2023-05-19T05:18:49.936Z,1023.34
2023-05-19T05:19:49.926Z,1023.35
2023-05-19T05:20:49.923Z,1023.35
2023-05-19T05:21:49.925Z,1023.31
2023-05-19T05:22:49.925Z,1023.35
2023-05-19T05:23:49.925Z,1023.34
2023-05-19T05:24:49.949Z,1023.29
2023-05-19T05:25:49.912Z,1023.34
2023-05-19T05:26:49.941Z,1023.32
2023-05-19T05:27:49.916Z,1023.32
2023-05-19T05:28:49.917Z,1023.37
2023-05-19T05:29:51.576Z,1023.38
2023-05-19T05:30:49.919Z,1023.34
2023-05-19T05:31:49.915Z,1023.40
2023-05-19T05:32:50.005Z,1023.40
2023-05-19T05:33:49.928Z,1023.44
2023-05-19T05:34:49.915Z,1023.40
2023-05-19T05:35:49.913Z,1023.44
2023-05-19T05:36:49.916Z,1023.42
2023-05-19T05:37:49.912Z,1023.44
2023-05-19T05:38:49.915Z,1023.45
2023-05-19T05:39:49.910Z,1023.40
2023-05-19T05:40:49.935Z,1023.40
2023-05-19T05:41:49.921Z,1023.46
2023-05-19T05:42:49.912Z,1023.48
2023-05-19T05:43:49.911Z,1023.49
2023-05-19T05:44:49.912Z,1023.47
2023-05-19T05:45:49.929Z,1023.49
2023-05-19T05:46:49.916Z,1023.48
2023-05-19T05:47:49.936Z,1023.47
2023-05-19T05:48:49.913Z,1023.47
2023-05-19T05:49:52.127Z,1023.46
2023-05-19T05:50:49.916Z,1023.46
2023-05-19T05:52:01.910Z,1023.45
2023-05-19T05:52:49.908Z,1023.53
2023-05-19T05:53:49.911Z,1023.51
2023-05-19T05:54:49.919Z,1023.51
2023-05-19T05:55:49.906Z,1023.52
2023-05-19T05:56:49.935Z,1023.51
2023-05-19T05:57:49.908Z,1023.47
2023-05-19T05:58:49.911Z,1023.50
2023-05-19T05:59:49.908Z,1023.47
2023-05-19T06:00:49.910Z,1023.47
2023-05-19T06:01:49.916Z,1023.45
2023-05-19T06:02:49.996Z,1023.52
2023-05-19T06:03:49.956Z,1023.44
2023-05-19T06:04:49.910Z,1023.54
2023-05-19T06:05:49.972Z,1023.48
2023-05-19T06:06:49.923Z,1023.51
2023-05-19T06:07:49.913Z,1023.45
2023-05-19T06:08:50.240Z,1023.44
2023-05-19T06:09:49.927Z,1023.41
2023-05-19T06:10:49.905Z,1023.42
2023-05-19T06:11:49.908Z,1023.43
2023-05-19T06:12:50.074Z,1023.45
2023-05-19T06:13:50.227Z,1023.41
2023-05-19T06:14:50.272Z,1023.38
2023-05-19T06:15:49.917Z,1023.38
2023-05-19T06:16:49.912Z,1023.36
2023-05-19T06:17:49.921Z,1023.33
2023-05-19T06:18:49.928Z,1023.37
2023-05-19T06:19:49.906Z,1023.34
2023-05-19T06:20:49.907Z,1023.33
2023-05-19T06:21:49.914Z,1023.38
2023-05-19T06:22:49.911Z,1023.38
2023-05-19T06:23:49.906Z,1023.38
2023-05-19T06:24:49.915Z,1023.39
2023-05-19T06:25:49.918Z,1023.39
2023-05-19T06:26:49.918Z,1023.41
2023-05-19T06:27:49.908Z,1023.44
2023-05-19T06:28:50.070Z,1023.42
2023-05-19T06:29:49.913Z,1023.44
2023-05-19T06:30:49.918Z,1023.45
2023-05-19T06:31:50.059Z,1023.42
2023-05-19T06:32:50.005Z,1023.45
2023-05-19T06:33:49.911Z,1023.42
2023-05-19T06:34:49.908Z,1023.44
2023-05-19T06:35:49.910Z,1023.45
2023-05-19T06:36:49.915Z,1023.46
2023-05-19T06:37:49.909Z,1023.49
2023-05-19T06:38:49.908Z,1023.44
2023-05-19T06:39:49.904Z,1023.46
2023-05-19T06:40:49.906Z,1023.45
2023-05-19T06:41:49.926Z,1023.52
2023-05-19T06:42:49.919Z,1023.49
2023-05-19T06:43:49.910Z,1023.47
2023-05-19T06:44:49.931Z,1023.47
2023-05-19T06:45:49.902Z,1023.50
2023-05-19T06:46:49.974Z,1023.48
2023-05-19T06:47:49.956Z,1023.51
2023-05-19T06:48:49.932Z,1023.49
2023-05-19T06:49:49.909Z,1023.50
2023-05-19T06:50:49.920Z,1023.52
2023-05-19T06:51:49.908Z,1023.48
2023-05-19T06:52:49.915Z,1023.53
2023-05-19T06:53:49.904Z,1023.50
2023-05-19T06:54:49.955Z,1023.60
2023-05-19T06:55:58.710Z,1023.53
2023-05-19T06:56:49.974Z,1023.54
2023-05-19T06:57:49.940Z,1023.58
2023-05-19T06:59:50.016Z,1023.64
2023-05-19T07:00:49.983Z,1023.65
2023-05-19T07:01:50.033Z,1023.68
2023-05-19T07:02:50.068Z,1023.70
2023-05-19T07:03:50.328Z,1023.71
2023-05-19T07:04:49.942Z,1023.74
2023-05-19T07:05:49.945Z,1023.72
2023-05-19T07:06:49.955Z,1023.74
2023-05-19T07:07:49.966Z,1023.78
2023-05-19T07:08:50.013Z,1023.76
2023-05-19T07:09:49.968Z,1023.76
2023-05-19T07:10:49.982Z,1023.77
2023-05-19T07:11:49.972Z,1023.73
2023-05-19T07:12:49.966Z,1023.74
2023-05-19T07:13:50.013Z,1023.72
2023-05-19T07:14:49.961Z,1023.71
2023-05-19T07:15:49.969Z,1023.68
2023-05-19T07:16:50.063Z,1023.68
2023-05-19T07:17:50.009Z,1023.66
2023-05-19T07:18:49.986Z,1023.69
2023-05-19T07:19:49.964Z,1023.66
2023-05-19T07:20:49.925Z,1023.68
2023-05-19T07:21:49.927Z,1023.69
2023-05-19T07:22:49.926Z,1023.65
2023-05-19T07:23:49.933Z,1023.69
2023-05-19T07:24:49.924Z,1023.69
2023-05-19T07:25:49.932Z,1023.70
2023-05-19T07:26:49.923Z,1023.75
2023-05-19T07:27:49.940Z,1023.77
2023-05-19T07:28:49.950Z,1023.78
2023-05-19T07:29:49.937Z,1023.82
2023-05-19T07:30:49.967Z,1023.80
2023-05-19T07:31:49.986Z,1023.79
2023-05-19T07:32:50.006Z,1023.78
2023-05-19T07:33:50.342Z,1023.76
2023-05-19T07:34:49.928Z,1023.73
2023-05-19T07:35:49.953Z,1023.73
2023-05-19T07:36:50.002Z,1023.67
2023-05-19T07:37:49.941Z,1023.66
2023-05-19T07:38:49.948Z,1023.63
2023-05-19T07:39:49.935Z,1023.63
2023-05-19T07:40:49.929Z,1023.61
2023-05-19T07:41:49.980Z,1023.62
2023-05-19T07:42:49.932Z,1023.63
2023-05-19T07:43:49.938Z,1023.64
2023-05-19T07:44:49.936Z,1023.63
2023-05-19T07:45:49.981Z,1023.62
2023-05-19T07:46:49.946Z,1023.69
2023-05-19T07:47:49.972Z,1023.68
2023-05-19T07:48:49.986Z,1024.04
2023-05-19T07:49:51.904Z,1027.08
2023-05-19T07:50:49.936Z,1031.37
2023-05-19T07:51:49.944Z,1034.90
2023-05-19T07:52:49.942Z,1035.61
2023-05-19T07:53:49.948Z,1034.91
2023-05-19T07:54:49.951Z,1035.06
2023-05-19T07:55:49.948Z,1035.07
2023-05-19T07:56:49.959Z,1034.15
2023-05-19T07:57:49.954Z,1034.32
2023-05-19T07:58:49.946Z,1034.06
2023-05-19T07:59:49.968Z,1033.60
2023-05-19T08:00:49.955Z,1033.40
2023-05-19T08:01:49.968Z,1033.10
2023-05-19T08:02:50.065Z,1033.20
2023-05-19T08:03:50.176Z,1033.04
2023-05-19T08:04:50.184Z,1031.86
2023-05-19T08:05:49.969Z,1030.22
2023-05-19T08:06:49.978Z,1030.22
2023-05-19T08:07:49.983Z,1030.79
2023-05-19T08:08:49.992Z,1031.29
2023-05-19T08:09:49.981Z,1031.43
2023-05-19T08:10:49.996Z,1030.55
2023-05-19T08:11:50.030Z,1029.56
2023-05-19T08:12:50.003Z,1029.39
2023-05-19T08:13:50.008Z,1029.24
2023-05-19T08:14:50.010Z,1029.26
2023-05-19T08:15:50.138Z,1029.08
2023-05-19T08:16:50.030Z,1029.08
2023-05-19T08:17:50.078Z,1028.97
2023-05-19T08:18:50.052Z,1028.69
2023-05-19T08:19:50.040Z,1028.00
2023-05-19T08:20:50.105Z,1027.42
2023-05-19T08:21:50.073Z,1027.16
2023-05-19T08:22:50.080Z,1027.03
2023-05-19T08:23:50.079Z,1026.72
2023-05-19T08:24:50.085Z,1026.58
2023-05-19T08:25:50.095Z,1026.56
2023-05-19T08:26:50.100Z,1026.64
2023-05-19T08:27:50.103Z,1026.50
2023-05-19T08:28:50.184Z,1026.35
2023-05-19T08:29:50.124Z,1026.23
2023-05-19T08:30:50.133Z,1026.08
2023-05-19T08:31:50.163Z,1026.04
2023-05-19T08:32:50.170Z,1025.98
2023-05-19T08:33:50.169Z,1025.85
2023-05-19T08:34:50.179Z,1025.76
2023-05-19T08:35:50.187Z,1025.80
2023-05-19T08:36:50.243Z,1025.78
2023-05-19T08:37:50.214Z,1025.74
2023-05-19T08:38:50.241Z,1025.70
2023-05-19T08:39:50.237Z,1025.64
2023-05-19T08:40:50.281Z,1025.62
2023-05-19T08:41:50.259Z,1025.59
2023-05-19T08:42:50.287Z,1025.58
2023-05-19T08:43:50.294Z,1025.57
2023-05-19T08:44:50.305Z,1025.55
2023-05-19T08:45:50.313Z,1025.51
2023-05-19T08:46:50.376Z,1025.45
2023-05-19T08:47:50.417Z,1025.45
2023-05-19T08:48:50.354Z,1025.46
2023-05-19T08:49:50.365Z,1025.47
2023-05-19T08:50:50.383Z,1025.49
2023-05-19T08:51:50.399Z,1025.50
2023-05-19T08:52:52.786Z,1025.49
2023-05-19T08:53:50.442Z,1025.55
2023-05-19T08:54:50.454Z,1025.40
2023-05-19T08:55:50.474Z,1025.17
2023-05-19T08:56:50.466Z,1024.40
2023-05-19T08:57:50.486Z,1025.47
2023-05-19T08:58:50.510Z,1024.54
2023-05-19T08:59:50.535Z,1024.78
2023-05-19T09:00:50.577Z,1025.14
2023-05-19T09:01:50.545Z,1025.06
2023-05-19T09:03:00.155Z,1025.33
2023-05-19T09:03:50.818Z,1024.42
2023-05-19T09:04:50.674Z,1025.30
2023-05-19T09:05:50.647Z,1025.17
2023-05-19T09:06:50.634Z,1025.08
2023-05-19T09:07:50.639Z,1025.22
2023-05-19T09:08:50.700Z,1024.04
2023-05-19T09:09:50.674Z,1024.08
2023-05-19T09:10:50.699Z,1024.94
2023-05-19T09:11:50.720Z,1024.99
2023-05-19T09:12:50.737Z,1024.53
2023-05-19T09:13:50.761Z,1024.18
2023-05-19T09:14:50.765Z,1024.33
2023-05-19T09:15:50.775Z,1024.36
2023-05-19T09:16:50.872Z,1024.17
2023-05-19T09:17:50.901Z,1023.99
2023-05-19T09:18:50.834Z,1024.06
2023-05-19T09:19:50.838Z,1023.95
2023-05-19T09:20:50.862Z,1024.00
2023-05-19T09:21:50.889Z,1024.04
2023-05-19T09:22:50.894Z,1024.46
2023-05-19T09:23:50.906Z,1024.20
2023-05-19T09:24:50.954Z,1024.49
2023-05-19T09:25:50.945Z,1024.65
2023-05-19T09:26:50.952Z,1024.04
2023-05-19T09:27:50.961Z,1024.46
2023-05-19T09:28:50.980Z,1024.39
2023-05-19T09:29:50.990Z,1024.61
2023-05-19T09:30:51.024Z,1023.88
2023-05-19T09:31:51.067Z,1023.87
2023-05-19T09:32:51.076Z,1023.82
2023-05-19T09:33:51.061Z,1023.72
2023-05-19T09:34:51.079Z,1023.83
2023-05-19T09:35:51.080Z,1024.01
2023-05-19T09:36:51.099Z,1024.12
2023-05-19T09:37:51.115Z,1024.09
2023-05-19T09:38:51.132Z,1024.18
2023-05-19T09:39:51.135Z,1024.09
2023-05-19T09:40:51.170Z,1023.95
2023-05-19T09:41:51.167Z,1023.70
2023-05-19T09:42:51.181Z,1023.79
2023-05-19T09:43:51.193Z,1024.01
2023-05-19T09:44:51.208Z,1024.12
2023-05-19T09:45:51.243Z,1024.21
2023-05-19T09:46:51.233Z,1024.27
2023-05-19T09:47:51.325Z,1024.29
2023-05-19T09:48:51.264Z,1024.06
2023-05-19T09:49:51.267Z,1024.46
2023-05-19T09:50:51.287Z,1024.15
2023-05-19T09:51:51.303Z,1024.01
2023-05-19T09:52:51.315Z,1023.66
2023-05-19T09:53:51.324Z,1023.54
2023-05-19T09:54:51.348Z,1023.49
2023-05-19T09:55:51.367Z,1023.47
2023-05-19T09:56:51.431Z,1023.87
2023-05-19T09:57:51.377Z,1023.55
2023-05-19T09:58:51.397Z,1023.42
2023-05-19T09:59:51.406Z,1023.41
2023-05-19T10:00:51.419Z,1023.43
2023-05-19T10:01:51.475Z,1024.03
2023-05-19T10:02:51.494Z,1023.89
2023-05-19T10:03:51.454Z,1024.11
2023-05-19T10:04:51.525Z,1023.90
2023-05-19T10:05:51.475Z,1023.67
2023-05-19T10:06:51.495Z,1023.75
2023-05-19T10:07:51.587Z,1023.71
2023-05-19T10:08:51.519Z,1023.85
2023-05-19T10:09:51.527Z,1023.48
2023-05-19T10:10:51.541Z,1023.66
2023-05-19T10:11:51.553Z,1023.77
2023-05-19T10:12:51.581Z,1023.78
2023-05-19T10:13:51.569Z,1023.89
2023-05-19T10:14:51.591Z,1024.16
2023-05-19T10:15:58.344Z,1024.20
2023-05-19T10:16:51.660Z,1023.22
2023-05-19T10:17:51.660Z,1023.09
2023-05-19T10:18:51.649Z,1023.12
2023-05-19T10:19:51.634Z,1023.17
2023-05-19T10:20:51.651Z,1023.32
2023-05-19T10:21:51.661Z,1023.41
2023-05-19T10:22:51.684Z,1023.50
2023-05-19T10:23:51.681Z,1023.52
2023-05-19T10:24:51.715Z,1023.43
2023-05-19T10:25:51.723Z,1023.46
2023-05-19T10:26:51.718Z,1023.36
2023-05-19T10:27:51.726Z,1023.37
2023-05-19T10:28:51.868Z,1023.27
2023-05-19T10:29:51.746Z,1023.41
2023-05-19T10:30:51.761Z,1023.34
2023-05-19T10:31:51.862Z,1023.26
2023-05-19T10:32:51.812Z,1023.18
2023-05-19T10:33:51.784Z,1023.07
2023-05-19T10:34:51.818Z,1023.05
2023-05-19T10:35:51.808Z,1023.06
2023-05-19T10:36:51.826Z,1023.14
2023-05-19T10:37:51.827Z,1023.33
2023-05-19T10:38:51.835Z,1023.66
2023-05-19T10:39:51.853Z,1023.58
2023-05-19T10:40:51.868Z,1023.49
2023-05-19T10:41:51.861Z,1023.35
2023-05-19T10:42:51.873Z,1023.28
2023-05-19T10:43:51.876Z,1023.10
2023-05-19T10:44:51.922Z,1023.08
2023-05-19T10:45:51.902Z,1023.18
2023-05-19T10:46:53.433Z,1023.29
2023-05-19T10:47:52.003Z,1023.27
2023-05-19T10:48:51.937Z,1023.18
2023-05-19T10:49:51.928Z,1023.18
2023-05-19T10:50:51.940Z,1023.09
2023-05-19T10:51:51.949Z,1022.93
2023-05-19T10:52:51.961Z,1022.88
2023-05-19T10:53:51.969Z,1022.87
2023-05-19T10:54:51.976Z,1022.88
2023-05-19T10:55:51.981Z,1022.93
2023-05-19T10:56:51.991Z,1022.93
2023-05-19T10:57:51.996Z,1022.95
2023-05-19T10:58:52.014Z,1022.98
2023-05-19T10:59:52.027Z,1023.07
2023-05-19T11:00:52.039Z,1023.45
2023-05-19T11:01:52.048Z,1023.66
2023-05-19T11:02:52.120Z,1023.65
2023-05-19T11:03:52.124Z,1023.73
2023-05-19T11:04:52.256Z,1023.33
2023-05-19T11:05:52.062Z,1023.41
2023-05-19T11:06:52.063Z,1023.17
2023-05-19T11:07:52.068Z,1023.13
2023-05-19T11:08:52.083Z,1023.14
2023-05-19T11:09:52.108Z,1022.96
2023-05-19T11:10:52.097Z,1022.83
2023-05-19T11:11:52.091Z,1022.86
2023-05-19T11:12:52.269Z,1023.21
2023-05-19T11:13:52.116Z,1023.31
2023-05-19T11:14:52.134Z,1023.59
2023-05-19T11:15:52.135Z,1023.50
2023-05-19T11:16:52.234Z,1023.27
2023-05-19T11:17:52.208Z,1023.09
2023-05-19T11:18:52.177Z,1023.04
2023-05-19T11:19:52.166Z,1023.27
2023-05-19T11:20:52.215Z,1023.24
2023-05-19T11:21:52.191Z,1022.94
2023-05-19T11:22:52.184Z,1022.91
2023-05-19T11:23:52.240Z,1023.11
2023-05-19T11:24:52.209Z,1023.06
2023-05-19T11:25:52.207Z,1023.11
2023-05-19T11:26:52.211Z,1023.18
2023-05-19T11:27:52.224Z,1023.17
2023-05-19T11:28:52.232Z,1023.05
2023-05-19T11:29:52.232Z,1022.99
2023-05-19T11:30:52.587Z,1022.86
2023-05-19T11:31:52.304Z,1022.87
2023-05-19T11:32:52.363Z,1022.84
2023-05-19T11:33:52.269Z,1022.97
2023-05-19T11:34:52.280Z,1022.93
2023-05-19T11:35:52.285Z,1022.87
2023-05-19T11:36:52.304Z,1022.82
2023-05-19T11:37:52.324Z,1022.81
2023-05-19T11:38:52.318Z,1022.88
2023-05-19T11:39:52.354Z,1022.80
2023-05-19T11:40:52.327Z,1022.84
2023-05-19T11:41:52.331Z,1022.85
2023-05-19T11:42:52.344Z,1022.88
2023-05-19T11:43:52.352Z,1022.86
2023-05-19T11:44:52.356Z,1022.78
2023-05-19T11:45:52.408Z,1022.77
2023-05-19T11:46:52.418Z,1022.74
2023-05-19T11:48:52.427Z,1022.79
2023-05-19T11:49:52.397Z,1022.80
2023-05-19T11:50:52.435Z,1022.70
2023-05-19T11:51:52.414Z,1022.77
2023-05-19T11:52:52.429Z,1022.63
2023-05-19T11:53:52.464Z,1022.59
2023-05-19T11:54:52.452Z,1022.55
2023-05-19T11:55:52.763Z,1022.57
2023-05-19T11:56:52.466Z,1022.68
2023-05-19T11:58:02.865Z,1022.70
2023-05-19T11:58:52.466Z,1022.68
2023-05-19T11:59:52.475Z,1022.77
2023-05-19T12:00:52.499Z,1022.74
2023-05-19T12:01:52.490Z,1022.77
2023-05-19T12:02:52.660Z,1022.72
2023-05-19T12:03:53.054Z,1022.69
2023-05-19T12:04:52.622Z,1022.64
2023-05-19T12:05:52.608Z,1022.60
2023-05-19T12:06:52.525Z,1022.63
2023-05-19T12:07:52.549Z,1022.62